createdAt,value
2019-05-21T00:02:00.672Z,72.64
2019-05-21T00:04:28.586Z,72.46
2019-05-21T00:06:54.732Z,72.62
2019-05-21T00:09:20.840Z,72.71
2019-05-21T00:11:46.851Z,72.68
2019-05-21T00:14:12.851Z,72.97
2019-05-21T00:16:38.964Z,73.30
2019-05-21T00:19:04.961Z,73.42
2019-05-21T00:21:31.098Z,73.53
2019-05-21T00:23:56.990Z,73.22
2019-05-21T00:26:22.993Z,73.00
2019-05-21T00:29:26.032Z,73.02
2019-05-21T00:32:29.681Z,73.15
2019-05-21T00:35:47.282Z,72.96
2019-05-21T00:38:52.178Z,72.82
2019-05-21T00:41:55.323Z,72.92
2019-05-21T00:44:21.477Z,73.23
2019-05-21T00:46:47.581Z,74.07
2019-05-21T00:49:13.694Z,74.54
2019-05-21T00:51:39.605Z,74.87
2019-05-21T00:54:05.737Z,75.31
2019-05-21T00:56:31.651Z,75.58
2019-05-21T00:58:57.651Z,75.16
2019-05-21T01:01:23.558Z,75.26
2019-05-21T01:03:49.564Z,75.26
2019-05-21T01:06:15.565Z,75.12
2019-05-21T01:08:41.668Z,74.91
2019-05-21T01:11:07.780Z,74.87
2019-05-21T01:13:33.782Z,75.04
2019-05-21T01:15:59.788Z,75.71
2019-05-21T01:18:25.838Z,75.74
2019-05-21T01:20:52.043Z,75.85
2019-05-21T01:23:18.009Z,76.42
2019-05-21T01:25:43.906Z,76.26
2019-05-21T01:28:10.026Z,75.91
2019-05-21T01:30:36.148Z,75.91
2019-05-21T01:33:02.147Z,76.08
2019-05-21T01:35:28.189Z,76.01
2019-05-21T01:37:54.226Z,76.08
2019-05-21T01:40:20.363Z,75.96
2019-05-21T01:42:46.267Z,76.23
2019-05-21T01:45:12.417Z,76.42
2019-05-21T01:47:38.425Z,76.20
2019-05-21T01:50:05.101Z,76.23
2019-05-21T01:52:31.095Z,76.44
2019-05-21T01:54:57.010Z,76.62
2019-05-21T01:57:23.136Z,76.93
2019-05-21T01:59:49.142Z,76.62
2019-05-21T02:02:15.160Z,76.83
2019-05-21T02:04:41.163Z,77.25
2019-05-21T02:07:07.271Z,77.29
2019-05-21T02:09:35.331Z,76.93
2019-05-21T02:12:01.483Z,76.85
2019-05-21T02:14:27.427Z,76.90
2019-05-21T02:16:53.561Z,76.98
2019-05-21T02:19:19.582Z,77.04
2019-05-21T02:21:45.693Z,77.17
2019-05-21T02:24:11.703Z,77.32
2019-05-21T02:26:37.817Z,77.45
2019-05-21T02:29:03.953Z,77.38
2019-05-21T02:31:29.859Z,77.99
2019-05-21T02:33:55.940Z,77.97
2019-05-21T02:36:22.341Z,77.55
2019-05-21T02:38:48.447Z,77.40
2019-05-21T02:41:14.600Z,77.25
2019-05-21T02:43:40.714Z,77.22
2019-05-21T02:46:06.806Z,77.23
2019-05-21T02:48:32.940Z,77.11
2019-05-21T02:50:58.842Z,77.26
2019-05-21T02:53:24.940Z,76.86
2019-05-21T02:55:50.989Z,76.75
2019-05-21T02:58:17.438Z,76.90
2019-05-21T03:00:48.459Z,76.95
2019-05-21T03:03:16.444Z,77.18
2019-05-21T03:05:42.447Z,76.92
2019-05-21T03:08:08.561Z,76.90
2019-05-21T03:10:34.662Z,76.91
2019-05-21T03:13:00.702Z,76.98
2019-05-21T03:15:26.838Z,77.09
2019-05-21T03:17:53.554Z,77.27
2019-05-21T03:20:19.626Z,77.52
2019-05-21T03:22:45.664Z,78.31
2019-05-21T03:25:12.002Z,78.53
2019-05-21T03:27:38.010Z,78.38
2019-05-21T03:30:06.257Z,78.27
2019-05-21T03:32:32.410Z,77.95
2019-05-21T03:34:58.505Z,78.62
2019-05-21T03:37:24.409Z,78.62
2019-05-21T03:39:50.551Z,78.37
2019-05-21T03:42:16.651Z,78.20
2019-05-21T03:44:58.273Z,78.17
2019-05-21T03:47:11.292Z,78.07
2019-05-21T03:49:37.327Z,78.04
2019-05-21T03:52:03.438Z,78.01
2019-05-21T03:54:29.450Z,78.13
2019-05-21T03:56:55.449Z,78.21
2019-05-21T03:59:21.585Z,78.17
2019-05-21T04:01:47.692Z,78.24
2019-05-21T04:04:13.707Z,78.43
2019-05-21T04:06:51.106Z,78.67
2019-05-21T04:09:07.895Z,79.09
2019-05-21T04:11:33.883Z,79.00
2019-05-21T04:13:59.989Z,79.00
2019-05-21T04:16:27.899Z,79.19
2019-05-21T04:18:55.714Z,80.01
2019-05-21T04:21:21.647Z,79.93
2019-05-21T04:23:47.810Z,79.79
2019-05-21T04:26:14.003Z,79.75
2019-05-21T04:28:40.094Z,79.86
2019-05-21T04:31:06.118Z,79.96
2019-05-21T04:33:32.224Z,80.67
2019-05-21T04:35:58.230Z,80.93
2019-05-21T04:38:24.233Z,81.24
2019-05-21T04:40:50.246Z,80.86
2019-05-21T04:43:16.253Z,80.41
2019-05-21T04:45:42.281Z,80.00
2019-05-21T04:48:08.289Z,79.81
2019-05-21T04:50:34.398Z,79.68
2019-05-21T04:53:00.521Z,79.72
2019-05-21T04:55:26.469Z,79.57
2019-05-21T04:57:52.584Z,79.85
2019-05-21T05:00:18.775Z,80.77
2019-05-21T05:02:44.793Z,81.31
2019-05-21T05:05:10.899Z,81.70
2019-05-21T05:07:37.004Z,81.83
2019-05-21T05:10:04.805Z,81.86
2019-05-21T05:12:30.815Z,82.01
2019-05-21T05:14:56.866Z,82.20
2019-05-21T05:17:22.767Z,82.46
2019-05-21T05:19:48.909Z,82.08
2019-05-21T05:22:14.952Z,81.92
2019-05-21T05:24:40.887Z,81.81
2019-05-21T05:27:06.890Z,81.50
2019-05-21T05:29:32.894Z,81.62
2019-05-21T05:31:58.947Z,81.64
2019-05-21T05:34:24.877Z,81.90
2019-05-21T05:36:50.979Z,81.34
2019-05-21T05:39:17.082Z,81.03
2019-05-21T05:41:43.136Z,81.33
2019-05-21T05:44:09.237Z,81.28
2019-05-21T05:46:35.263Z,82.00
2019-05-21T05:49:03.078Z,82.61
2019-05-21T05:51:29.010Z,82.34
2019-05-21T05:53:57.762Z,81.74
2019-05-21T05:56:24.999Z,81.68
2019-05-21T05:58:51.089Z,81.41
2019-05-21T06:01:17.186Z,82.07
2019-05-21T06:03:43.089Z,82.89
2019-05-21T06:06:09.102Z,83.12
2019-05-21T06:08:34.998Z,83.10
2019-05-21T06:11:00.912Z,83.27
2019-05-21T06:13:27.023Z,83.13
2019-05-21T06:15:53.144Z,83.18
2019-05-21T06:18:19.054Z,83.23
2019-05-21T06:20:45.093Z,83.95
2019-05-21T06:23:11.195Z,83.75
2019-05-21T06:25:37.329Z,83.61
2019-05-21T06:28:03.422Z,84.15
2019-05-21T06:30:29.537Z,84.71
2019-05-21T06:32:55.660Z,84.32
2019-05-21T06:35:21.754Z,83.69
2019-05-21T06:37:47.903Z,83.88
2019-05-21T06:40:14.218Z,84.13
2019-05-21T06:42:40.116Z,83.82
2019-05-21T06:45:07.423Z,83.35
2019-05-21T06:47:33.332Z,83.00
2019-05-21T06:49:59.788Z,82.65
2019-05-21T06:52:25.694Z,82.61
2019-05-21T06:54:51.825Z,82.49
2019-05-21T06:57:17.751Z,82.18
2019-05-21T06:59:43.881Z,82.15
2019-05-21T07:02:10.050Z,81.98
2019-05-21T07:04:35.942Z,82.04
2019-05-21T07:07:02.052Z,82.51
2019-05-21T07:09:28.162Z,82.25
2019-05-21T07:11:54.166Z,82.03
2019-05-21T07:14:20.275Z,81.82
2019-05-21T07:16:46.184Z,81.86
2019-05-21T07:19:12.292Z,81.99
2019-05-21T07:21:38.199Z,82.66
2019-05-21T07:24:04.311Z,83.73
2019-05-21T07:26:30.437Z,84.20
2019-05-21T07:28:56.968Z,84.49
2019-05-21T07:31:23.396Z,84.71
2019-05-21T07:33:49.514Z,85.14
2019-05-21T07:36:15.685Z,86.02
2019-05-21T07:38:52.519Z,85.78
2019-05-21T07:41:09.713Z,85.87
2019-05-21T07:43:35.814Z,86.02
2019-05-21T07:46:02.235Z,86.35
2019-05-21T07:48:28.275Z,86.43
2019-05-21T07:50:54.418Z,86.10
2019-05-21T07:53:20.625Z,85.49
2019-05-21T07:55:46.740Z,85.59
2019-05-21T07:58:12.868Z,85.34
2019-05-21T08:00:38.897Z,85.86
2019-05-21T08:03:05.013Z,86.09
2019-05-21T08:05:31.165Z,86.01
2019-05-21T08:07:57.370Z,86.56
2019-05-21T08:10:23.420Z,86.68
2019-05-21T08:12:49.461Z,86.87
2019-05-21T08:15:15.574Z,86.38
2019-05-21T08:17:41.720Z,86.24
2019-05-21T08:20:10.390Z,86.14
2019-05-21T08:22:36.885Z,86.04
2019-05-21T08:25:05.120Z,86.29
2019-05-21T08:27:31.237Z,85.50
2019-05-21T08:29:57.157Z,85.93
2019-05-21T08:32:23.268Z,86.64
2019-05-21T08:34:49.276Z,86.30
2019-05-21T08:37:15.280Z,85.99
2019-05-21T08:39:41.418Z,86.19
2019-05-21T08:42:07.637Z,86.32
2019-05-21T08:44:33.781Z,86.19
2019-05-21T08:47:00.210Z,86.08
2019-05-21T08:49:26.319Z,86.65
2019-05-21T08:51:52.460Z,86.72
2019-05-21T08:54:20.479Z,87.08
2019-05-21T08:56:46.487Z,87.48
2019-05-21T08:59:12.595Z,87.71
2019-05-21T09:01:38.604Z,87.75
2019-05-21T09:04:04.740Z,87.50
2019-05-21T09:06:30.860Z,87.20
2019-05-21T09:08:56.869Z,86.99
2019-05-21T09:11:22.818Z,86.38
2019-05-21T09:13:48.827Z,85.74
2019-05-21T09:16:14.846Z,85.00
2019-05-21T09:18:40.860Z,85.52
2019-05-21T09:21:06.965Z,85.25
2019-05-21T09:23:33.094Z,84.98
2019-05-21T09:25:59.299Z,85.14
2019-05-21T09:28:25.328Z,85.17
2019-05-21T09:30:51.439Z,85.23
2019-05-21T09:33:17.458Z,84.81
2019-05-21T09:35:43.358Z,84.58
2019-05-21T09:38:09.259Z,84.45
2019-05-21T09:40:35.358Z,84.68
2019-05-21T09:43:01.481Z,84.41
2019-05-21T09:45:27.589Z,84.16
2019-05-21T09:47:53.729Z,83.91
2019-05-21T09:50:19.917Z,84.81
2019-05-21T09:52:46.214Z,84.99
2019-05-21T09:55:12.507Z,85.25
2019-05-21T09:57:52.588Z,85.06
2019-05-21T10:00:23.621Z,85.22
2019-05-21T10:02:49.619Z,85.25
2019-05-21T10:05:15.832Z,85.44
2019-05-21T10:07:41.969Z,85.85
2019-05-21T10:10:08.665Z,85.84
2019-05-21T10:12:34.709Z,86.01
2019-05-21T10:15:00.838Z,86.18
2019-05-21T10:17:26.725Z,86.16
2019-05-21T10:19:52.862Z,86.07
2019-05-21T10:22:18.975Z,86.15
2019-05-21T10:24:45.113Z,85.93
2019-05-21T10:27:11.124Z,85.79
2019-05-21T10:29:37.149Z,85.73
2019-05-21T10:32:03.469Z,85.70
2019-05-21T10:34:29.645Z,85.29
2019-05-21T10:36:55.648Z,85.35
2019-05-21T10:39:21.788Z,85.27
2019-05-21T10:41:47.797Z,85.11
2019-05-21T10:44:13.957Z,84.92
2019-05-21T10:46:40.099Z,84.82
2019-05-21T10:49:06.312Z,84.65
2019-05-21T10:51:32.531Z,84.69
2019-05-21T10:53:58.828Z,85.18
2019-05-21T10:56:24.901Z,84.96
2019-05-21T10:58:51.016Z,85.18
2019-05-21T11:01:19.057Z,84.50
2019-05-21T11:04:03.872Z,84.42
2019-05-21T11:06:30.079Z,84.13
2019-05-21T11:08:55.988Z,84.33
2019-05-21T11:11:22.087Z,84.16
2019-05-21T11:13:48.213Z,84.31
2019-05-21T11:16:14.346Z,84.61
2019-05-21T11:18:40.435Z,84.42
2019-05-21T11:21:06.447Z,84.40
2019-05-21T11:23:32.587Z,84.71
2019-05-21T11:26:00.101Z,84.84
2019-05-21T11:28:26.099Z,85.40
2019-05-21T11:30:52.505Z,85.94
2019-05-21T11:33:18.651Z,85.63
2019-05-21T11:35:44.772Z,85.19
2019-05-21T11:38:10.975Z,85.12
2019-05-21T11:40:37.086Z,85.01
2019-05-21T11:43:03.194Z,85.38
2019-05-21T11:45:32.787Z,85.43
2019-05-21T11:47:57.108Z,85.71
2019-05-21T11:50:23.316Z,85.97
2019-05-21T11:52:49.711Z,85.52
2019-05-21T11:55:15.735Z,85.61
2019-05-21T11:57:41.835Z,85.39
2019-05-21T12:00:08.943Z,85.27
2019-05-21T12:02:36.537Z,85.41
2019-05-21T12:05:05.389Z,85.21
2019-05-21T12:07:31.538Z,85.26
2019-05-21T12:09:57.746Z,84.97
2019-05-21T12:12:23.857Z,84.93
2019-05-21T12:14:49.997Z,84.86
2019-05-21T12:17:16.003Z,84.74
2019-05-21T12:19:42.151Z,84.35
2019-05-21T12:22:08.245Z,84.09
2019-05-21T12:24:34.264Z,84.41
2019-05-21T12:27:00.359Z,84.74
2019-05-21T12:29:26.580Z,85.40
2019-05-21T12:31:52.591Z,86.31
2019-05-21T12:34:18.500Z,86.42
2019-05-21T12:36:44.665Z,86.34
2019-05-21T12:39:14.625Z,86.09
2019-05-21T12:41:38.967Z,86.00
2019-05-21T12:44:05.166Z,86.00
2019-05-21T12:46:31.110Z,85.91
2019-05-21T12:48:57.228Z,86.32
2019-05-21T12:51:23.335Z,86.26
2019-05-21T12:53:49.448Z,85.92
2019-05-21T12:56:15.460Z,85.54
2019-05-21T12:58:41.462Z,86.10
2019-05-21T13:01:07.672Z,85.92
2019-05-21T13:03:33.676Z,85.84
2019-05-21T13:05:59.789Z,85.68
2019-05-21T13:08:25.902Z,85.26
2019-05-21T13:10:52.138Z,85.11
2019-05-21T13:13:18.293Z,85.71
2019-05-21T13:15:44.417Z,85.73
2019-05-21T13:18:10.519Z,85.75
2019-05-21T13:20:36.626Z,86.10
2019-05-21T13:23:03.436Z,86.35
2019-05-21T13:25:29.606Z,86.05
2019-05-21T13:27:57.759Z,85.47
2019-05-21T13:30:24.136Z,85.41
2019-05-21T13:32:50.136Z,85.65
2019-05-21T13:35:16.240Z,85.48
2019-05-21T13:37:42.344Z,85.15
2019-05-21T13:40:09.246Z,85.23
2019-05-21T13:42:35.250Z,85.29
2019-05-21T13:45:01.369Z,85.10
2019-05-21T13:47:27.416Z,85.75
2019-05-21T13:49:53.409Z,85.59
2019-05-21T13:52:19.509Z,85.56
2019-05-21T13:54:45.515Z,85.74
2019-05-21T13:57:11.543Z,85.60
2019-05-21T13:59:37.734Z,86.16
2019-05-21T14:02:05.153Z,85.95
2019-05-21T14:04:31.408Z,86.63
2019-05-21T14:06:57.425Z,86.70
2019-05-21T14:09:25.368Z,86.43
2019-05-21T14:11:51.990Z,85.99
2019-05-21T14:14:18.043Z,85.91
2019-05-21T14:16:44.055Z,85.86
2019-05-21T14:19:10.315Z,86.08
2019-05-21T14:21:36.427Z,86.11
2019-05-21T14:24:02.703Z,86.18
2019-05-21T14:26:29.245Z,86.19
2019-05-21T14:28:55.243Z,86.25
2019-05-21T14:31:21.356Z,86.45
2019-05-21T14:33:47.455Z,86.39
2019-05-21T14:36:13.449Z,86.21
2019-05-21T14:38:39.572Z,85.79
2019-05-21T14:41:05.671Z,85.52
2019-05-21T14:43:31.608Z,85.19
2019-05-21T14:45:57.765Z,85.02
2019-05-21T14:48:23.770Z,84.87
2019-05-21T14:50:49.803Z,85.00
2019-05-21T14:53:15.945Z,85.14
2019-05-21T14:55:41.964Z,85.42
2019-05-21T14:58:08.018Z,85.58
2019-05-21T15:00:36.132Z,85.63
2019-05-21T15:03:02.541Z,85.36
2019-05-21T15:05:28.647Z,85.64
2019-05-21T15:07:54.705Z,85.81
2019-05-21T15:10:20.819Z,85.50
2019-05-21T15:12:46.980Z,85.46
2019-05-21T15:15:13.345Z,85.29
2019-05-21T15:17:39.492Z,85.06
2019-05-21T15:20:15.104Z,85.01
2019-05-21T15:22:41.043Z,85.21
2019-05-21T15:25:07.148Z,84.97
2019-05-21T15:27:33.258Z,84.86
2019-05-21T15:29:59.171Z,84.82
2019-05-21T15:32:26.323Z,84.83
2019-05-21T15:34:52.974Z,84.86
2019-05-21T15:37:19.103Z,84.89
2019-05-21T15:39:45.093Z,84.94
2019-05-21T15:42:11.138Z,84.72
2019-05-21T15:44:37.241Z,84.39
2019-05-21T15:47:03.351Z,84.58
2019-05-21T15:49:36.309Z,84.61
2019-05-21T15:51:57.385Z,84.79
2019-05-21T15:54:23.496Z,84.74
2019-05-21T15:56:49.512Z,84.70
2019-05-21T15:59:15.655Z,84.71
2019-05-21T16:01:41.777Z,84.69
2019-05-21T16:04:07.888Z,84.12
2019-05-21T16:06:34.000Z,84.18
2019-05-21T16:08:59.935Z,84.69
2019-05-21T16:11:28.994Z,84.64
2019-05-21T16:13:54.054Z,84.64
2019-05-21T16:16:19.964Z,84.84
2019-05-21T16:18:46.015Z,84.95
2019-05-21T16:21:12.123Z,84.87
2019-05-21T16:23:38.022Z,84.56
2019-05-21T16:26:04.127Z,84.28
2019-05-21T16:28:30.027Z,84.21
2019-05-21T16:30:56.214Z,83.87
2019-05-21T16:33:22.236Z,83.85
2019-05-21T16:35:48.240Z,83.61
2019-05-21T16:38:15.218Z,83.51
2019-05-21T16:40:41.384Z,83.54
2019-05-21T16:43:07.430Z,83.44
2019-05-21T16:45:33.542Z,83.41
2019-05-21T16:47:59.951Z,83.29
2019-05-21T16:50:26.501Z,83.26
2019-05-21T16:52:52.812Z,83.57
2019-05-21T16:55:18.960Z,83.46
2019-05-21T16:57:45.075Z,83.47
2019-05-21T17:00:14.898Z,83.37
2019-05-21T17:02:41.300Z,83.32
2019-05-21T17:05:07.509Z,83.28
2019-05-21T17:07:33.730Z,83.30
2019-05-21T17:09:59.831Z,83.85
2019-05-21T17:12:25.945Z,83.80
2019-05-21T17:14:51.962Z,83.71
2019-05-21T17:17:18.074Z,84.13
2019-05-21T17:19:45.121Z,85.05
2019-05-21T17:22:11.265Z,85.05
2019-05-21T17:24:37.377Z,84.75
2019-05-21T17:27:03.483Z,84.49
2019-05-21T17:29:29.392Z,84.26
2019-05-21T17:31:55.434Z,84.15
2019-05-21T17:34:21.687Z,84.07
2019-05-21T17:36:47.702Z,84.22
2019-05-21T17:39:13.840Z,84.44
2019-05-21T17:41:40.094Z,84.34
2019-05-21T17:44:07.473Z,84.14
2019-05-21T17:46:33.717Z,84.05
2019-05-21T17:48:59.827Z,84.24
2019-05-21T17:51:26.154Z,84.12
2019-05-21T17:53:52.353Z,84.20
2019-05-21T17:56:18.483Z,84.23
2019-05-21T17:58:44.592Z,84.11
2019-05-21T18:01:12.632Z,84.16
2019-05-21T18:03:38.754Z,84.09
2019-05-21T18:06:05.963Z,84.02
2019-05-21T18:08:32.510Z,83.91
2019-05-21T18:10:59.173Z,83.99
2019-05-21T18:13:25.895Z,83.97
2019-05-21T18:15:52.311Z,83.94
2019-05-21T18:18:18.527Z,83.91
2019-05-21T18:20:44.535Z,84.01
2019-05-21T18:23:10.547Z,83.95
2019-05-21T18:25:36.755Z,83.85
2019-05-21T18:28:03.062Z,84.01
2019-05-21T18:30:29.256Z,84.40
2019-05-21T18:32:55.538Z,84.27
2019-05-21T18:35:22.087Z,84.23
2019-05-21T18:37:48.202Z,84.54
2019-05-21T18:40:15.520Z,84.52
2019-05-21T18:42:41.638Z,84.34
2019-05-21T18:45:09.374Z,84.08
2019-05-21T18:47:35.487Z,83.89
2019-05-21T18:50:02.044Z,84.21
2019-05-21T18:52:28.022Z,84.07
2019-05-21T18:54:54.053Z,83.94
2019-05-21T18:57:20.099Z,83.97
2019-05-21T18:59:46.104Z,83.95
2019-05-21T19:02:13.323Z,84.47
2019-05-21T19:04:39.426Z,84.37
2019-05-21T19:07:05.450Z,84.29
2019-05-21T19:09:31.579Z,84.10
2019-05-21T19:11:57.726Z,84.14
2019-05-21T19:14:23.844Z,84.05
2019-05-21T19:16:49.951Z,84.21
2019-05-21T19:19:16.074Z,84.74
2019-05-21T19:21:42.088Z,84.89
2019-05-21T19:24:08.231Z,84.68
2019-05-21T19:26:34.233Z,84.49
2019-05-21T19:29:00.318Z,84.76
2019-05-21T19:31:26.328Z,84.54
2019-05-21T19:33:52.234Z,84.88
2019-05-21T19:36:18.244Z,84.76
2019-05-21T19:38:44.451Z,84.47
2019-05-21T19:41:10.588Z,84.36
2019-05-21T19:43:36.770Z,84.26
2019-05-21T19:46:03.044Z,84.28
2019-05-21T19:48:29.098Z,84.14
2019-05-21T19:50:55.191Z,84.23
2019-05-21T19:53:21.257Z,84.22
2019-05-21T19:55:47.588Z,84.42
2019-05-21T19:58:13.803Z,84.79
2019-05-21T20:00:41.716Z,85.18
2019-05-21T20:03:08.522Z,85.17
2019-05-21T20:05:34.878Z,85.35
2019-05-21T20:08:01.610Z,85.28
2019-05-21T20:10:27.918Z,85.23
2019-05-21T20:12:54.029Z,85.36
2019-05-21T20:15:20.043Z,85.79
2019-05-21T20:17:50.790Z,85.97
2019-05-21T20:20:19.040Z,86.12
2019-05-21T20:22:46.160Z,85.98
2019-05-21T20:25:12.369Z,85.84
2019-05-21T20:27:38.806Z,85.83
2019-05-21T20:30:12.865Z,85.89
2019-05-21T20:32:36.109Z,86.01
2019-05-21T20:35:05.427Z,85.69
2019-05-21T20:37:31.554Z,86.09
2019-05-21T20:39:58.996Z,86.49
2019-05-21T20:42:25.898Z,86.80
2019-05-21T20:44:52.239Z,86.92
2019-05-21T20:47:18.422Z,86.49
2019-05-21T20:49:45.438Z,86.16
2019-05-21T20:52:18.584Z,85.91
2019-05-21T20:54:41.947Z,85.87
2019-05-21T20:57:10.206Z,85.95
2019-05-21T20:59:36.343Z,85.83
2019-05-21T21:02:08.103Z,85.87
2019-05-21T21:04:32.671Z,85.76
2019-05-21T21:06:59.505Z,85.74
2019-05-21T21:09:25.631Z,85.72
2019-05-21T21:11:52.068Z,85.84
2019-05-21T21:14:18.690Z,85.85
2019-05-21T21:16:45.326Z,85.78
2019-05-21T21:19:11.426Z,85.83
2019-05-21T21:21:37.675Z,85.80
2019-05-21T21:24:03.779Z,85.58
2019-05-21T21:26:30.392Z,85.37
2019-05-21T21:28:56.406Z,85.57
2019-05-21T21:31:22.556Z,85.56
2019-05-21T21:33:48.763Z,85.92
2019-05-21T21:36:14.969Z,85.96
2019-05-21T21:38:41.109Z,85.65
2019-05-21T21:41:07.508Z,85.69
2019-05-21T21:43:33.815Z,85.74
2019-05-21T21:45:59.929Z,85.47
2019-05-21T21:48:26.049Z,85.45
2019-05-21T21:50:52.467Z,85.49
2019-05-21T21:53:19.001Z,85.51
2019-05-21T21:55:45.008Z,85.26
2019-05-21T21:58:11.124Z,85.08
2019-05-21T22:01:04.084Z,85.04
2019-05-21T22:03:33.229Z,84.98
2019-05-21T22:06:00.241Z,85.58
2019-05-21T22:08:27.861Z,85.93
2019-05-21T22:10:53.865Z,86.64
2019-05-21T22:13:20.181Z,86.56
2019-05-21T22:15:46.386Z,86.64
2019-05-21T22:18:13.489Z,86.09
2019-05-21T22:20:39.629Z,86.16
2019-05-21T22:23:06.363Z,86.94
2019-05-21T22:25:32.466Z,87.00
2019-05-21T22:27:58.392Z,87.19
2019-05-21T22:30:26.209Z,87.32
2019-05-21T22:32:52.287Z,87.19
2019-05-21T22:35:18.333Z,86.81
2019-05-21T22:37:44.453Z,86.41
2019-05-21T22:40:10.660Z,86.39
2019-05-21T22:42:36.866Z,86.51
2019-05-21T22:45:08.443Z,86.32
2019-05-21T22:47:33.910Z,86.40
2019-05-21T22:50:00.245Z,86.78
2019-05-21T22:52:26.285Z,86.47
2019-05-21T22:54:52.395Z,86.77
2019-05-21T22:57:18.509Z,86.89
2019-05-21T22:59:45.058Z,87.17
2019-05-21T23:02:13.063Z,86.95
2019-05-21T23:04:39.171Z,86.66
2019-05-21T23:07:05.882Z,86.79
2019-05-21T23:09:31.933Z,86.57
2019-05-21T23:11:58.083Z,86.26
2019-05-21T23:14:24.284Z,86.32
2019-05-21T23:16:50.319Z,86.37
2019-05-21T23:19:18.134Z,86.33
2019-05-21T23:21:45.640Z,86.41
2019-05-21T23:24:13.654Z,86.55
2019-05-21T23:26:40.858Z,86.46
2019-05-21T23:29:08.081Z,86.39
2019-05-21T23:31:34.097Z,86.16
2019-05-21T23:34:00.738Z,85.82
2019-05-21T23:36:27.243Z,85.79
2019-05-21T23:38:53.289Z,85.62
2019-05-21T23:41:19.998Z,85.63
2019-05-21T23:43:48.101Z,85.57
2019-05-21T23:46:14.614Z,85.61
2019-05-21T23:48:41.522Z,85.42
2019-05-21T23:51:07.731Z,85.34
2019-05-21T23:53:34.139Z,85.26
2019-05-21T23:56:00.240Z,85.15
2019-05-21T23:58:26.351Z,85.01
